createdAt,value
2022-08-26T00:02:38.744Z,11.77
2022-08-26T00:06:01.793Z,12.48
2022-08-26T00:09:25.651Z,11.85
2022-08-26T00:12:47.286Z,11.55
2022-08-26T00:16:11.755Z,11.68
2022-08-26T00:19:33.635Z,12.32
2022-08-26T00:22:55.291Z,11.98
2022-08-26T00:26:17.313Z,11.50
2022-08-26T00:29:39.923Z,11.57
2022-08-26T00:33:04.477Z,10.77
2022-08-26T00:36:29.765Z,10.13
2022-08-26T00:39:52.866Z,10.40
2022-08-26T00:43:18.334Z,10.93
2022-08-26T00:46:46.364Z,10.60
2022-08-26T00:50:15.506Z,10.30
2022-08-26T00:53:42.789Z,11.07
2022-08-26T00:57:15.940Z,10.35
2022-08-26T01:00:38.306Z,10.75
2022-08-26T01:04:01.293Z,10.82
2022-08-26T01:07:25.425Z,10.27
2022-08-26T01:10:47.407Z,9.88
2022-08-26T01:14:10.551Z,10.68
2022-08-26T01:17:33.257Z,11.00
2022-08-26T01:21:01.750Z,11.10
2022-08-26T01:24:27.573Z,11.05
2022-08-26T01:27:49.898Z,11.00
2022-08-26T01:31:16.176Z,10.10
2022-08-26T01:34:40.814Z,10.38
2022-08-26T01:38:05.083Z,10.00
2022-08-26T01:41:29.129Z,11.00
2022-08-26T01:44:54.881Z,10.30
2022-08-26T01:48:24.646Z,10.70
2022-08-26T01:51:47.928Z,10.82
2022-08-26T01:55:11.362Z,9.60
2022-08-26T01:58:39.586Z,10.45
2022-08-26T02:02:02.067Z,10.40
2022-08-26T02:05:24.766Z,10.88
2022-08-26T02:08:49.625Z,10.35
2022-08-26T02:12:15.600Z,10.60
2022-08-26T02:15:42.912Z,10.73
2022-08-26T02:19:05.904Z,11.05
2022-08-26T02:22:32.197Z,11.00
2022-08-26T02:25:57.915Z,10.80
2022-08-26T02:29:25.954Z,10.63
2022-08-26T02:32:49.462Z,10.95
2022-08-26T02:36:12.110Z,10.57
2022-08-26T02:39:37.579Z,10.60
2022-08-26T02:42:59.842Z,10.70
2022-08-26T02:46:29.735Z,11.05
2022-08-26T02:49:53.366Z,10.73
2022-08-26T02:53:16.310Z,10.05
2022-08-26T02:56:46.257Z,11.02
2022-08-26T03:00:10.999Z,11.10
2022-08-26T03:03:33.133Z,11.40
2022-08-26T03:06:56.534Z,11.00
2022-08-26T03:10:19.295Z,11.75
2022-08-26T03:13:42.126Z,11.02
2022-08-26T03:17:04.109Z,11.82
2022-08-26T03:20:26.006Z,11.93
2022-08-26T03:23:49.627Z,11.68
2022-08-26T03:27:11.714Z,11.88
2022-08-26T03:30:44.824Z,13.02
2022-08-26T03:34:07.307Z,12.13
2022-08-26T03:37:28.907Z,12.07
2022-08-26T03:40:52.326Z,11.93
2022-08-26T03:44:14.522Z,11.15
2022-08-26T03:47:36.401Z,12.25
2022-08-26T03:51:00.031Z,12.27
2022-08-26T03:54:24.934Z,12.32
2022-08-26T03:57:48.591Z,12.60
2022-08-26T04:01:10.350Z,11.80
2022-08-26T04:04:32.325Z,12.70
2022-08-26T04:07:54.854Z,12.18
2022-08-26T04:11:19.843Z,12.68
2022-08-26T04:14:43.126Z,12.32
2022-08-26T04:18:06.366Z,12.90
2022-08-26T04:21:29.448Z,12.93
2022-08-26T04:24:51.315Z,12.95
2022-08-26T04:28:14.801Z,13.05
2022-08-26T04:31:39.734Z,12.27
2022-08-26T04:35:01.928Z,12.23
2022-08-26T04:38:23.962Z,12.85
2022-08-26T04:41:46.205Z,12.48
2022-08-26T04:45:10.350Z,11.50
2022-08-26T04:48:35.298Z,11.98
2022-08-26T04:51:57.022Z,11.55
2022-08-26T04:55:19.067Z,12.50
2022-08-26T04:58:42.299Z,12.32
2022-08-26T05:02:04.446Z,12.50
2022-08-26T05:05:29.207Z,12.07
2022-08-26T05:08:51.560Z,11.93
2022-08-26T05:12:14.952Z,12.57
2022-08-26T05:15:38.463Z,12.60
2022-08-26T05:19:00.209Z,12.63
2022-08-26T05:22:23.755Z,12.13
2022-08-26T05:25:48.745Z,12.88
2022-08-26T05:29:10.739Z,13.10
2022-08-26T05:32:32.567Z,13.25
2022-08-26T05:35:54.278Z,12.85
2022-08-26T05:39:18.842Z,12.95
2022-08-26T05:42:40.907Z,12.60
2022-08-26T05:46:08.139Z,12.60
2022-08-26T05:49:30.118Z,13.88
2022-08-26T05:52:52.215Z,13.25
2022-08-26T05:56:15.819Z,12.15
2022-08-26T05:59:37.735Z,12.60
2022-08-26T06:03:01.011Z,13.25
2022-08-26T06:06:27.878Z,13.18
2022-08-26T06:09:50.692Z,14.25
2022-08-26T06:13:14.183Z,12.95
2022-08-26T06:16:38.577Z,13.45
2022-08-26T06:20:02.513Z,14.25
2022-08-26T06:23:41.815Z,13.32
2022-08-26T06:27:05.647Z,13.68
2022-08-26T06:30:28.975Z,14.57
2022-08-26T06:33:51.482Z,14.40
2022-08-26T06:37:13.416Z,12.23
2022-08-26T06:40:36.487Z,12.82
2022-08-26T06:43:58.132Z,13.55
2022-08-26T06:47:21.467Z,13.35
2022-08-26T06:50:45.333Z,13.70
2022-08-26T06:54:08.284Z,13.73
2022-08-26T06:57:32.820Z,14.18
2022-08-26T07:01:00.665Z,15.50
2022-08-26T07:04:27.831Z,16.30
2022-08-26T07:07:49.691Z,15.35
2022-08-26T07:11:14.211Z,15.23
2022-08-26T07:14:35.959Z,15.38
2022-08-26T07:17:57.570Z,15.57
2022-08-26T07:21:22.518Z,14.70
2022-08-26T07:24:45.799Z,15.20
2022-08-26T07:28:07.861Z,15.82
2022-08-26T07:31:39.660Z,15.63
2022-08-26T07:35:06.155Z,15.65
2022-08-26T07:38:30.009Z,15.40
2022-08-26T07:41:56.221Z,15.48
2022-08-26T07:45:19.508Z,15.80
2022-08-26T07:48:41.377Z,15.60
2022-08-26T07:52:08.720Z,14.73
2022-08-26T07:55:32.340Z,16.10
2022-08-26T07:58:55.119Z,13.88
2022-08-26T08:02:17.102Z,15.23
2022-08-26T08:05:41.268Z,13.95
2022-08-26T08:09:03.420Z,13.25
2022-08-26T08:12:27.790Z,13.80
2022-08-26T08:15:50.321Z,13.93
2022-08-26T08:19:12.245Z,12.35
2022-08-26T08:22:33.915Z,13.38
2022-08-26T08:26:02.435Z,12.10
2022-08-26T08:29:26.671Z,11.82
2022-08-26T08:32:48.915Z,12.05
2022-08-26T08:36:10.656Z,11.85
2022-08-26T08:39:40.366Z,10.75
2022-08-26T08:43:05.320Z,11.40
2022-08-26T08:46:30.203Z,10.55
2022-08-26T08:49:54.502Z,10.70
2022-08-26T08:53:20.410Z,10.30
2022-08-26T08:56:48.232Z,10.38
2022-08-26T09:00:17.733Z,10.25
2022-08-26T09:03:51.098Z,11.10
2022-08-26T09:07:18.544Z,10.15
2022-08-26T09:10:44.351Z,9.98
2022-08-26T09:14:06.734Z,10.27
2022-08-26T09:17:40.763Z,10.70
2022-08-26T09:21:06.669Z,10.38
2022-08-26T09:24:31.973Z,10.40
2022-08-26T09:27:55.149Z,11.23
2022-08-26T09:31:25.178Z,11.23
2022-08-26T09:34:58.083Z,10.57
2022-08-26T09:38:27.992Z,14.23
2022-08-26T09:42:04.329Z,10.77
2022-08-26T09:45:29.584Z,14.45
2022-08-26T09:48:53.232Z,18.10
2022-08-26T09:52:23.510Z,10.90
2022-08-26T09:55:50.131Z,14.10
2022-08-26T09:59:12.701Z,10.73
2022-08-26T10:02:47.452Z,14.82
2022-08-26T10:06:24.111Z,13.75
2022-08-26T10:09:48.146Z,10.60
2022-08-26T10:13:20.459Z,10.07
2022-08-26T10:16:52.724Z,10.02
2022-08-26T10:20:23.533Z,11.73
2022-08-26T10:23:52.104Z,9.95
2022-08-26T10:27:25.558Z,11.23
2022-08-26T10:30:54.886Z,12.18
2022-08-26T10:34:19.207Z,11.27
2022-08-26T10:37:48.040Z,10.60
2022-08-26T10:41:15.894Z,9.95
2022-08-26T10:44:43.920Z,10.32
2022-08-26T10:48:11.096Z,10.13
2022-08-26T10:51:38.582Z,10.95
2022-08-26T10:55:07.009Z,10.82
2022-08-26T10:58:44.532Z,10.57
2022-08-26T11:02:13.322Z,10.48
2022-08-26T11:05:37.346Z,11.55
2022-08-26T11:09:02.262Z,11.50
2022-08-26T11:13:04.651Z,10.63
2022-08-26T11:16:43.697Z,10.90
2022-08-26T11:20:09.169Z,10.75
2022-08-26T11:23:50.831Z,10.80
2022-08-26T11:27:54.248Z,11.07
2022-08-26T11:31:48.908Z,11.30
2022-08-26T11:35:13.048Z,10.93
2022-08-26T11:38:35.174Z,10.52
2022-08-26T11:42:04.225Z,10.52
2022-08-26T11:45:32.204Z,10.50
2022-08-26T11:49:02.507Z,11.07
2022-08-26T11:52:26.282Z,10.57
2022-08-26T11:55:48.738Z,10.55
2022-08-26T11:59:16.589Z,11.25
2022-08-26T12:02:40.358Z,10.88
2022-08-26T12:06:03.093Z,10.63
2022-08-26T12:09:26.529Z,10.85
2022-08-26T12:12:56.654Z,11.52
2022-08-26T12:16:25.565Z,11.15
2022-08-26T12:19:47.183Z,14.45
2022-08-26T12:23:09.205Z,10.80
2022-08-26T12:26:33.333Z,11.25
2022-08-26T12:30:08.805Z,12.70
2022-08-26T12:33:37.058Z,12.10
2022-08-26T12:40:32.982Z,10.65
2022-08-26T12:43:56.737Z,11.02
2022-08-26T12:47:30.897Z,11.05
2022-08-26T12:51:08.610Z,10.93
2022-08-26T12:54:44.499Z,11.45
2022-08-26T12:58:29.615Z,12.07
2022-08-26T13:01:52.310Z,11.05
2022-08-26T13:05:21.811Z,11.73
2022-08-26T13:08:46.484Z,12.20
2022-08-26T13:12:08.409Z,11.55
2022-08-26T13:15:30.134Z,10.77
2022-08-26T13:18:56.891Z,11.15
2022-08-26T13:22:24.152Z,8.00
2022-08-26T13:25:47.383Z,7.03
2022-08-26T13:29:10.607Z,6.97
2022-08-26T13:32:32.771Z,6.80
2022-08-26T13:35:54.849Z,7.05
2022-08-26T13:39:17.417Z,7.10
2022-08-26T13:42:42.994Z,7.15
2022-08-26T13:46:11.513Z,7.43
2022-08-26T13:49:34.090Z,7.25
2022-08-26T13:52:55.910Z,7.22
2022-08-26T13:56:18.782Z,7.30
2022-08-26T13:59:42.140Z,6.68
2022-08-26T14:03:04.083Z,6.30
2022-08-26T14:06:26.202Z,5.78
2022-08-26T14:09:47.966Z,6.22
2022-08-26T14:13:09.908Z,6.53
2022-08-26T14:16:37.237Z,6.20
2022-08-26T14:20:22.675Z,6.35
2022-08-26T14:23:45.230Z,5.70
2022-08-26T14:27:07.298Z,5.90
2022-08-26T14:30:29.199Z,5.30
2022-08-26T14:33:52.373Z,5.70
2022-08-26T14:37:15.359Z,5.18
2022-08-26T14:40:40.146Z,5.50
2022-08-26T14:44:04.229Z,5.40
2022-08-26T14:47:26.279Z,5.50
2022-08-26T14:50:49.498Z,5.28
2022-08-26T14:54:16.273Z,5.28
2022-08-26T14:57:37.722Z,5.60
2022-08-26T15:00:59.846Z,5.38
2022-08-26T15:04:26.252Z,5.75
2022-08-26T15:07:49.329Z,5.35
2022-08-26T15:11:11.121Z,5.60
2022-08-26T15:14:33.326Z,5.20
2022-08-26T15:17:54.978Z,5.80
2022-08-26T15:21:16.954Z,5.78
2022-08-26T15:24:40.434Z,5.45
2022-08-26T15:28:02.311Z,5.65
2022-08-26T15:31:31.006Z,5.97
2022-08-26T15:34:53.148Z,5.47
2022-08-26T15:38:15.022Z,5.40
2022-08-26T15:41:38.678Z,5.60
2022-08-26T15:45:00.454Z,5.90
2022-08-26T15:48:24.411Z,4.93
2022-08-26T15:51:47.822Z,5.30
2022-08-26T15:55:10.691Z,4.78
2022-08-26T15:58:34.034Z,4.80
2022-08-26T16:01:57.991Z,6.72
2022-08-26T16:05:19.790Z,6.07
2022-08-26T16:08:41.666Z,5.43
2022-08-26T16:12:03.452Z,6.28
2022-08-26T16:15:29.051Z,5.90
2022-08-26T16:18:51.078Z,5.47
2022-08-26T16:22:13.078Z,6.20
2022-08-26T16:25:35.306Z,5.75
2022-08-26T16:28:57.433Z,6.13
2022-08-26T16:32:20.477Z,7.13
2022-08-26T16:35:43.919Z,7.68
2022-08-26T16:39:07.517Z,6.50
2022-08-26T16:42:29.231Z,10.48
2022-08-26T16:45:51.139Z,6.72
2022-08-26T16:49:14.158Z,6.35
2022-08-26T16:52:37.146Z,6.82
2022-08-26T16:55:59.198Z,6.70
2022-08-26T16:59:20.930Z,8.00
2022-08-26T17:02:42.781Z,9.05
2022-08-26T17:06:06.315Z,6.90
2022-08-26T17:09:28.170Z,6.38
2022-08-26T17:12:50.313Z,7.03
2022-08-26T17:16:13.582Z,8.52
2022-08-26T17:19:40.737Z,7.47
2022-08-26T17:23:10.513Z,6.68
2022-08-26T17:26:32.663Z,6.30
2022-08-26T17:29:54.686Z,7.97
2022-08-26T17:33:17.101Z,6.88
2022-08-26T17:36:43.311Z,7.45
2022-08-26T17:40:09.713Z,7.03
2022-08-26T17:43:31.377Z,7.03
2022-08-26T17:46:53.756Z,7.20
2022-08-26T17:50:18.331Z,7.55
2022-08-26T17:53:41.209Z,7.95
2022-08-26T17:57:10.677Z,7.63
2022-08-26T18:00:32.527Z,8.35
2022-08-26T18:04:00.184Z,7.60
2022-08-26T18:07:22.823Z,7.82
2022-08-26T18:10:45.487Z,7.80
2022-08-26T18:14:08.710Z,8.43
2022-08-26T18:17:30.722Z,8.13
2022-08-26T18:20:52.599Z,8.70
2022-08-26T18:24:24.495Z,8.43
2022-08-26T18:27:46.529Z,7.35
2022-08-26T18:31:12.491Z,8.10
2022-08-26T18:34:35.629Z,7.95
2022-08-26T18:37:58.236Z,7.55
2022-08-26T18:41:25.960Z,7.38
2022-08-26T18:44:51.128Z,7.55
2022-08-26T18:48:14.646Z,8.20
2022-08-26T18:51:37.930Z,7.15
2022-08-26T18:55:00.633Z,7.93
2022-08-26T18:58:22.623Z,7.32
2022-08-26T19:01:45.372Z,7.57
2022-08-26T19:05:10.235Z,7.78
2022-08-26T19:08:32.357Z,9.10
2022-08-26T19:11:54.271Z,10.85
2022-08-26T19:15:15.936Z,10.05
2022-08-26T19:18:38.138Z,10.68
2022-08-26T19:22:01.602Z,10.35
2022-08-26T19:25:23.183Z,10.65
2022-08-26T19:28:45.232Z,10.10
2022-08-26T19:32:07.074Z,10.68
2022-08-26T19:35:28.873Z,10.68
2022-08-26T19:38:55.267Z,9.98
2022-08-26T19:42:17.688Z,10.30
2022-08-26T19:45:39.833Z,10.50
2022-08-26T19:49:01.747Z,10.15
2022-08-26T19:52:29.735Z,9.88
2022-08-26T19:55:53.085Z,8.25
2022-08-26T19:59:15.222Z,9.43
2022-08-26T20:02:37.430Z,9.98
2022-08-26T20:05:59.751Z,8.68
2022-08-26T20:09:21.732Z,9.60
2022-08-26T20:12:45.581Z,9.60
2022-08-26T20:16:08.045Z,9.93
2022-08-26T20:19:47.258Z,10.10
2022-08-26T20:23:09.362Z,9.95
2022-08-26T20:26:35.958Z,9.18
2022-08-26T20:29:59.095Z,9.80
2022-08-26T20:33:21.193Z,9.73
2022-08-26T20:36:43.910Z,8.93
2022-08-26T20:40:08.424Z,9.80
2022-08-26T20:43:30.506Z,9.40
2022-08-26T20:46:53.995Z,9.43
2022-08-26T20:50:15.586Z,10.95
2022-08-26T20:53:37.577Z,10.68
2022-08-26T20:57:00.103Z,10.70
2022-08-26T21:00:22.986Z,9.85
2022-08-26T21:03:51.881Z,9.80
2022-08-26T21:07:13.567Z,10.40
2022-08-26T21:10:35.878Z,12.40
2022-08-26T21:14:15.956Z,9.60
2022-08-26T21:17:38.873Z,9.95
2022-08-26T21:21:05.113Z,9.73
2022-08-26T21:24:27.116Z,10.07
2022-08-26T21:27:48.912Z,9.98
2022-08-26T21:31:13.462Z,10.32
2022-08-26T21:34:35.380Z,9.38
2022-08-26T21:37:58.337Z,8.93
2022-08-26T21:41:22.132Z,8.68
2022-08-26T21:44:45.142Z,8.90
2022-08-26T21:48:14.318Z,8.82
2022-08-26T21:51:38.575Z,8.98
2022-08-26T21:55:03.398Z,9.43
2022-08-26T21:58:30.533Z,9.05
2022-08-26T22:01:52.455Z,9.00
2022-08-26T22:05:14.617Z,9.10
2022-08-26T22:08:36.742Z,8.82
2022-08-26T22:12:00.551Z,9.32
2022-08-26T22:15:25.798Z,9.52
2022-08-26T22:18:47.392Z,9.43
2022-08-26T22:22:09.707Z,8.88
2022-08-26T22:25:31.442Z,9.05
2022-08-26T22:28:58.507Z,9.73
2022-08-26T22:32:21.289Z,10.32
2022-08-26T22:35:45.649Z,10.05
2022-08-26T22:39:07.494Z,9.85
2022-08-26T22:42:32.199Z,10.00
2022-08-26T22:45:56.870Z,9.85
2022-08-26T22:49:19.576Z,9.93
2022-08-26T22:52:41.992Z,9.70
2022-08-26T22:56:03.946Z,10.27
2022-08-26T22:59:26.209Z,10.48
2022-08-26T23:02:49.515Z,10.38
2022-08-26T23:06:11.852Z,10.73
2022-08-26T23:09:33.461Z,9.45
2022-08-26T23:12:55.354Z,10.40
2022-08-26T23:16:17.064Z,9.90
2022-08-26T23:19:40.229Z,10.25
2022-08-26T23:23:02.478Z,10.70
2022-08-26T23:26:24.906Z,9.93
2022-08-26T23:29:46.994Z,10.27
2022-08-26T23:33:08.833Z,10.68
2022-08-26T23:36:31.169Z,10.32
2022-08-26T23:39:56.928Z,10.57
2022-08-26T23:43:18.617Z,10.98
2022-08-26T23:46:40.581Z,10.88
2022-08-26T23:50:02.611Z,10.68
2022-08-26T23:53:24.714Z,10.95
2022-08-26T23:56:46.519Z,11.43
